sensor_id;sensor_type;location;lat;lon;timestamp;temperature;humidity
10433;DHT22;5263;48.680;9.004;2024-03-02T00:00:51;5.70;99.90
10433;DHT22;5263;48.680;9.004;2024-03-02T00:03:18;5.70;99.90
10433;DHT22;5263;48.680;9.004;2024-03-02T00:05:43;5.70;99.90
10433;DHT22;5263;48.680;9.004;2024-03-02T00:08:09;5.70;99.90
10433;DHT22;5263;48.680;9.004;2024-03-02T00:10:37;5.70;99.90
10433;DHT22;5263;48.680;9.004;2024-03-02T00:13:06;5.80;99.90
10433;DHT22;5263;48.680;9.004;2024-03-02T00:15:52;5.70;99.90
10433;DHT22;5263;48.680;9.004;2024-03-02T00:18:20;5.70;99.90
10433;DHT22;5263;48.680;9.004;2024-03-02T00:20:46;5.70;99.90
10433;DHT22;5263;48.680;9.004;2024-03-02T00:23:15;5.60;99.90
10433;DHT22;5263;48.680;9.004;2024-03-02T00:25:42;5.50;99.90
10433;DHT22;5263;48.680;9.004;2024-03-02T00:28:19;5.50;99.90
10433;DHT22;5263;48.680;9.004;2024-03-02T00:31:07;5.60;99.90
10433;DHT22;5263;48.680;9.004;2024-03-02T00:33:39;5.60;99.90
10433;DHT22;5263;48.680;9.004;2024-03-02T00:36:06;5.60;99.90
10433;DHT22;5263;48.680;9.004;2024-03-02T00:38:33;5.70;99.90
10433;DHT22;5263;48.680;9.004;2024-03-02T00:41:05;5.70;99.90
10433;DHT22;5263;48.680;9.004;2024-03-02T00:46:18;5.80;99.90
10433;DHT22;5263;48.680;9.004;2024-03-02T00:49:04;5.80;99.90
10433;DHT22;5263;48.680;9.004;2024-03-02T00:51:31;5.90;99.90
10433;DHT22;5263;48.680;9.004;2024-03-02T00:54:04;5.80;99.90
10433;DHT22;5263;48.680;9.004;2024-03-02T00:56:31;5.90;99.90
10433;DHT22;5263;48.680;9.004;2024-03-02T00:58:57;5.90;99.90
10433;DHT22;5263;48.680;9.004;2024-03-02T01:01:23;5.90;99.90
10433;DHT22;5263;48.680;9.004;2024-03-02T01:03:48;5.80;99.90
10433;DHT22;5263;48.680;9.004;2024-03-02T01:06:15;5.80;99.90
10433;DHT22;5263;48.680;9.004;2024-03-02T01:08:41;5.80;99.90
10433;DHT22;5263;48.680;9.004;2024-03-02T01:11:07;5.80;99.90
10433;DHT22;5263;48.680;9.004;2024-03-02T01:13:33;5.80;99.90
10433;DHT22;5263;48.680;9.004;2024-03-02T01:15:58;5.90;99.90
10433;DHT22;5263;48.680;9.004;2024-03-02T01:18:24;5.80;99.90
10433;DHT22;5263;48.680;9.004;2024-03-02T01:20:50;5.80;99.90
10433;DHT22;5263;48.680;9.004;2024-03-02T01:23:24;5.80;99.90
10433;DHT22;5263;48.680;9.004;2024-03-02T01:25:50;5.80;99.90
10433;DHT22;5263;48.680;9.004;2024-03-02T01:28:17;5.70;99.90
10433;DHT22;5263;48.680;9.004;2024-03-02T01:30:43;5.70;99.90
10433;DHT22;5263;48.680;9.004;2024-03-02T01:33:08;5.60;99.90
10433;DHT22;5263;48.680;9.004;2024-03-02T01:35:34;5.60;99.90
10433;DHT22;5263;48.680;9.004;2024-03-02T01:38:03;5.60;99.90
10433;DHT22;5263;48.680;9.004;2024-03-02T01:40:32;5.70;99.90
10433;DHT22;5263;48.680;9.004;2024-03-02T01:42:57;5.70;99.90
10433;DHT22;5263;48.680;9.004;2024-03-02T01:45:25;5.70;99.90
10433;DHT22;5263;48.680;9.004;2024-03-02T01:47:53;5.70;99.90
10433;DHT22;5263;48.680;9.004;2024-03-02T01:50:27;5.60;99.90
10433;DHT22;5263;48.680;9.004;2024-03-02T01:52:54;5.60;99.90
10433;DHT22;5263;48.680;9.004;2024-03-02T01:55:19;5.60;99.90
10433;DHT22;5263;48.680;9.004;2024-03-02T01:57:45;5.70;99.90
10433;DHT22;5263;48.680;9.004;2024-03-02T02:00:12;5.60;99.90
10433;DHT22;5263;48.680;9.004;2024-03-02T02:02:38;5.60;99.90
10433;DHT22;5263;48.680;9.004;2024-03-02T02:05:03;5.60;99.90
10433;DHT22;5263;48.680;9.004;2024-03-02T02:07:29;5.70;99.90
10433;DHT22;5263;48.680;9.004;2024-03-02T02:09:55;5.60;99.90
10433;DHT22;5263;48.680;9.004;2024-03-02T02:12:20;5.70;99.90
10433;DHT22;5263;48.680;9.004;2024-03-02T02:14:49;5.70;99.90
10433;DHT22;5263;48.680;9.004;2024-03-02T02:17:15;5.60;99.90
10433;DHT22;5263;48.680;9.004;2024-03-02T02:19:41;5.50;99.90
10433;DHT22;5263;48.680;9.004;2024-03-02T02:22:08;5.50;99.90
10433;DHT22;5263;48.680;9.004;2024-03-02T02:24:34;5.50;99.90
10433;DHT22;5263;48.680;9.004;2024-03-02T02:26:59;5.40;99.90
10433;DHT22;5263;48.680;9.004;2024-03-02T02:29:25;5.40;99.90
10433;DHT22;5263;48.680;9.004;2024-03-02T02:31:50;5.30;99.90
10433;DHT22;5263;48.680;9.004;2024-03-02T02:34:16;5.30;99.90
10433;DHT22;5263;48.680;9.004;2024-03-02T02:36:41;5.30;99.90
10433;DHT22;5263;48.680;9.004;2024-03-02T02:39:12;5.20;99.90
10433;DHT22;5263;48.680;9.004;2024-03-02T02:41:38;5.30;99.90
10433;DHT22;5263;48.680;9.004;2024-03-02T02:44:04;5.30;99.90
10433;DHT22;5263;48.680;9.004;2024-03-02T02:46:30;5.20;99.90
10433;DHT22;5263;48.680;9.004;2024-03-02T02:48:56;5.20;99.90
10433;DHT22;5263;48.680;9.004;2024-03-02T02:51:21;5.20;99.90
10433;DHT22;5263;48.680;9.004;2024-03-02T02:53:47;5.10;99.90
10433;DHT22;5263;48.680;9.004;2024-03-02T02:56:12;5.10;99.90
10433;DHT22;5263;48.680;9.004;2024-03-02T02:58:39;5.00;99.90
10433;DHT22;5263;48.680;9.004;2024-03-02T03:01:05;5.00;99.90
10433;DHT22;5263;48.680;9.004;2024-03-02T03:03:30;4.90;99.90
10433;DHT22;5263;48.680;9.004;2024-03-02T03:05:56;4.90;99.90
10433;DHT22;5263;48.680;9.004;2024-03-02T03:08:22;4.90;99.90
10433;DHT22;5263;48.680;9.004;2024-03-02T03:10:48;4.80;99.90
10433;DHT22;5263;48.680;9.004;2024-03-02T03:13:14;4.80;99.90
10433;DHT22;5263;48.680;9.004;2024-03-02T03:15:40;4.80;99.90
10433;DHT22;5263;48.680;9.004;2024-03-02T03:18:06;4.80;99.90
10433;DHT22;5263;48.680;9.004;2024-03-02T03:20:33;4.70;99.90
10433;DHT22;5263;48.680;9.004;2024-03-02T03:22:59;4.60;99.90
10433;DHT22;5263;48.680;9.004;2024-03-02T03:25:25;4.50;99.90
10433;DHT22;5263;48.680;9.004;2024-03-02T03:27:50;4.50;99.90
10433;DHT22;5263;48.680;9.004;2024-03-02T03:30:18;4.50;99.90
10433;DHT22;5263;48.680;9.004;2024-03-02T03:32:44;4.50;99.90
10433;DHT22;5263;48.680;9.004;2024-03-02T03:35:09;4.60;99.90
10433;DHT22;5263;48.680;9.004;2024-03-02T03:37:35;4.60;99.90
10433;DHT22;5263;48.680;9.004;2024-03-02T03:40:01;4.50;99.90
10433;DHT22;5263;48.680;9.004;2024-03-02T03:42:28;4.40;99.90
10433;DHT22;5263;48.680;9.004;2024-03-02T03:44:53;4.40;99.90
10433;DHT22;5263;48.680;9.004;2024-03-02T03:47:19;4.30;99.90
10433;DHT22;5263;48.680;9.004;2024-03-02T03:49:45;4.20;99.90
10433;DHT22;5263;48.680;9.004;2024-03-02T03:52:11;4.10;99.90
10433;DHT22;5263;48.680;9.004;2024-03-02T03:54:37;4.20;99.90
10433;DHT22;5263;48.680;9.004;2024-03-02T03:57:04;4.20;99.90
10433;DHT22;5263;48.680;9.004;2024-03-02T03:59:30;4.20;99.90
10433;DHT22;5263;48.680;9.004;2024-03-02T04:01:55;4.30;99.90
10433;DHT22;5263;48.680;9.004;2024-03-02T04:04:21;4.40;99.90
10433;DHT22;5263;48.680;9.004;2024-03-02T04:06:47;4.50;99.90
10433;DHT22;5263;48.680;9.004;2024-03-02T04:09:12;4.50;99.90
10433;DHT22;5263;48.680;9.004;2024-03-02T04:11:38;4.60;99.90
10433;DHT22;5263;48.680;9.004;2024-03-02T04:14:03;4.70;99.90
10433;DHT22;5263;48.680;9.004;2024-03-02T04:16:31;4.80;99.90
10433;DHT22;5263;48.680;9.004;2024-03-02T04:18:57;4.80;99.90
10433;DHT22;5263;48.680;9.004;2024-03-02T04:21:22;4.80;99.90
10433;DHT22;5263;48.680;9.004;2024-03-02T04:23:48;4.80;99.90
10433;DHT22;5263;48.680;9.004;2024-03-02T04:26:13;4.80;99.90
10433;DHT22;5263;48.680;9.004;2024-03-02T04:28:40;4.80;99.90
10433;DHT22;5263;48.680;9.004;2024-03-02T04:31:05;4.60;99.90
10433;DHT22;5263;48.680;9.004;2024-03-02T04:33:31;4.60;99.90
10433;DHT22;5263;48.680;9.004;2024-03-02T04:35:56;4.60;99.90
10433;DHT22;5263;48.680;9.004;2024-03-02T04:38:23;4.60;99.90
10433;DHT22;5263;48.680;9.004;2024-03-02T04:40:48;4.60;99.90
10433;DHT22;5263;48.680;9.004;2024-03-02T04:43:14;4.50;99.90
10433;DHT22;5263;48.680;9.004;2024-03-02T04:45:41;4.50;99.90
10433;DHT22;5263;48.680;9.004;2024-03-02T04:48:08;4.60;99.90
10433;DHT22;5263;48.680;9.004;2024-03-02T04:50:33;4.70;99.90
10433;DHT22;5263;48.680;9.004;2024-03-02T04:52:59;4.80;99.90
10433;DHT22;5263;48.680;9.004;2024-03-02T04:55:24;4.70;99.90
10433;DHT22;5263;48.680;9.004;2024-03-02T04:57:53;4.70;99.90
10433;DHT22;5263;48.680;9.004;2024-03-02T05:00:20;4.60;99.90
10433;DHT22;5263;48.680;9.004;2024-03-02T05:02:46;4.60;99.90
10433;DHT22;5263;48.680;9.004;2024-03-02T05:05:11;4.60;99.90
10433;DHT22;5263;48.680;9.004;2024-03-02T05:07:37;4.60;99.90
10433;DHT22;5263;48.680;9.004;2024-03-02T05:10:02;4.60;99.90
10433;DHT22;5263;48.680;9.004;2024-03-02T05:12:28;4.60;99.90
10433;DHT22;5263;48.680;9.004;2024-03-02T05:15:09;4.70;99.90
10433;DHT22;5263;48.680;9.004;2024-03-02T05:17:36;4.80;99.90
10433;DHT22;5263;48.680;9.004;2024-03-02T05:20:02;4.80;99.90
10433;DHT22;5263;48.680;9.004;2024-03-02T05:22:28;4.80;99.90
10433;DHT22;5263;48.680;9.004;2024-03-02T05:24:54;4.80;99.90
10433;DHT22;5263;48.680;9.004;2024-03-02T05:27:19;4.70;99.90
10433;DHT22;5263;48.680;9.004;2024-03-02T05:29:45;4.70;99.90
10433;DHT22;5263;48.680;9.004;2024-03-02T05:32:10;4.80;99.90
10433;DHT22;5263;48.680;9.004;2024-03-02T05:34:36;4.60;99.90
10433;DHT22;5263;48.680;9.004;2024-03-02T05:37:01;4.50;99.90
10433;DHT22;5263;48.680;9.004;2024-03-02T05:39:27;4.40;99.90
10433;DHT22;5263;48.680;9.004;2024-03-02T05:41:53;4.40;99.90
10433;DHT22;5263;48.680;9.004;2024-03-02T05:44:18;4.40;99.90
10433;DHT22;5263;48.680;9.004;2024-03-02T05:46:45;4.50;99.90
10433;DHT22;5263;48.680;9.004;2024-03-02T05:49:10;4.60;99.90
10433;DHT22;5263;48.680;9.004;2024-03-02T05:51:36;4.70;99.90
10433;DHT22;5263;48.680;9.004;2024-03-02T05:54:02;4.70;99.90
10433;DHT22;5263;48.680;9.004;2024-03-02T05:56:28;4.80;99.90
10433;DHT22;5263;48.680;9.004;2024-03-02T05:58:53;4.80;99.90
10433;DHT22;5263;48.680;9.004;2024-03-02T06:01:38;4.80;99.90
10433;DHT22;5263;48.680;9.004;2024-03-02T06:04:04;4.70;99.90
10433;DHT22;5263;48.680;9.004;2024-03-02T06:06:30;4.50;99.90
10433;DHT22;5263;48.680;9.004;2024-03-02T06:08:57;4.60;99.90
10433;DHT22;5263;48.680;9.004;2024-03-02T06:11:24;4.60;99.90
10433;DHT22;5263;48.680;9.004;2024-03-02T06:13:50;4.60;99.90
10433;DHT22;5263;48.680;9.004;2024-03-02T06:16:15;4.50;99.90
10433;DHT22;5263;48.680;9.004;2024-03-02T06:18:41;4.50;99.90
10433;DHT22;5263;48.680;9.004;2024-03-02T06:21:06;4.50;99.90
10433;DHT22;5263;48.680;9.004;2024-03-02T06:23:32;4.20;99.90
10433;DHT22;5263;48.680;9.004;2024-03-02T06:25:57;4.20;99.90
10433;DHT22;5263;48.680;9.004;2024-03-02T06:28:23;4.10;99.90
10433;DHT22;5263;48.680;9.004;2024-03-02T06:30:48;4.20;99.90
10433;DHT22;5263;48.680;9.004;2024-03-02T06:33:14;4.20;99.90
10433;DHT22;5263;48.680;9.004;2024-03-02T06:35:40;4.10;99.90
10433;DHT22;5263;48.680;9.004;2024-03-02T06:38:06;4.20;99.90
10433;DHT22;5263;48.680;9.004;2024-03-02T06:40:31;4.20;99.90
10433;DHT22;5263;48.680;9.004;2024-03-02T06:42:57;4.10;99.90
10433;DHT22;5263;48.680;9.004;2024-03-02T06:45:23;4.10;99.90
10433;DHT22;5263;48.680;9.004;2024-03-02T06:47:48;4.40;99.90
10433;DHT22;5263;48.680;9.004;2024-03-02T06:50:14;4.60;99.90
10433;DHT22;5263;48.680;9.004;2024-03-02T06:52:39;4.60;99.90
10433;DHT22;5263;48.680;9.004;2024-03-02T06:55:05;4.60;99.90
10433;DHT22;5263;48.680;9.004;2024-03-02T06:57:31;4.70;99.90
10433;DHT22;5263;48.680;9.004;2024-03-02T06:59:57;4.80;99.90
10433;DHT22;5263;48.680;9.004;2024-03-02T07:02:24;4.80;99.90
10433;DHT22;5263;48.680;9.004;2024-03-02T07:04:55;4.90;99.90
10433;DHT22;5263;48.680;9.004;2024-03-02T07:07:20;4.90;99.90
10433;DHT22;5263;48.680;9.004;2024-03-02T07:09:46;5.10;99.90
10433;DHT22;5263;48.680;9.004;2024-03-02T07:12:13;5.00;99.90
10433;DHT22;5263;48.680;9.004;2024-03-02T07:14:38;5.00;99.90
10433;DHT22;5263;48.680;9.004;2024-03-02T07:17:24;5.10;99.90
10433;DHT22;5263;48.680;9.004;2024-03-02T07:19:51;5.10;99.90
10433;DHT22;5263;48.680;9.004;2024-03-02T07:22:16;5.10;99.90
10433;DHT22;5263;48.680;9.004;2024-03-02T07:24:44;5.20;99.90
10433;DHT22;5263;48.680;9.004;2024-03-02T07:27:11;5.20;99.90
10433;DHT22;5263;48.680;9.004;2024-03-02T07:29:38;5.20;99.90
10433;DHT22;5263;48.680;9.004;2024-03-02T07:32:04;5.30;99.90
10433;DHT22;5263;48.680;9.004;2024-03-02T07:34:30;5.30;99.90
10433;DHT22;5263;48.680;9.004;2024-03-02T07:36:55;5.30;99.90
10433;DHT22;5263;48.680;9.004;2024-03-02T07:39:21;5.20;99.90
10433;DHT22;5263;48.680;9.004;2024-03-02T07:41:47;5.40;99.90
10433;DHT22;5263;48.680;9.004;2024-03-02T07:44:12;5.50;99.90
10433;DHT22;5263;48.680;9.004;2024-03-02T07:46:42;5.40;99.90
10433;DHT22;5263;48.680;9.004;2024-03-02T07:49:08;5.30;99.90
10433;DHT22;5263;48.680;9.004;2024-03-02T07:51:34;5.20;99.90
10433;DHT22;5263;48.680;9.004;2024-03-02T07:53:59;5.30;99.90
10433;DHT22;5263;48.680;9.004;2024-03-02T07:56:25;5.40;99.90
10433;DHT22;5263;48.680;9.004;2024-03-02T07:58:51;5.30;99.90
10433;DHT22;5263;48.680;9.004;2024-03-02T08:01:16;5.40;99.90
10433;DHT22;5263;48.680;9.004;2024-03-02T08:03:43;5.50;99.90
10433;DHT22;5263;48.680;9.004;2024-03-02T08:06:17;5.40;99.90
10433;DHT22;5263;48.680;9.004;2024-03-02T08:08:42;5.50;99.90
10433;DHT22;5263;48.680;9.004;2024-03-02T08:11:08;5.70;99.90
10433;DHT22;5263;48.680;9.004;2024-03-02T08:13:34;5.90;99.90
10433;DHT22;5263;48.680;9.004;2024-03-02T08:16:00;6.00;99.90
10433;DHT22;5263;48.680;9.004;2024-03-02T08:18:26;6.20;99.90
10433;DHT22;5263;48.680;9.004;2024-03-02T08:20:51;6.30;99.90
10433;DHT22;5263;48.680;9.004;2024-03-02T08:23:17;6.50;99.90
10433;DHT22;5263;48.680;9.004;2024-03-02T08:25:42;6.70;99.90
10433;DHT22;5263;48.680;9.004;2024-03-02T08:28:08;6.80;99.90
10433;DHT22;5263;48.680;9.004;2024-03-02T08:30:34;6.90;99.90
10433;DHT22;5263;48.680;9.004;2024-03-02T08:32:59;6.80;99.90
10433;DHT22;5263;48.680;9.004;2024-03-02T08:35:25;6.90;99.90
10433;DHT22;5263;48.680;9.004;2024-03-02T08:37:51;6.90;99.90
10433;DHT22;5263;48.680;9.004;2024-03-02T08:40:16;7.10;99.90
10433;DHT22;5263;48.680;9.004;2024-03-02T08:42:42;7.10;99.90
10433;DHT22;5263;48.680;9.004;2024-03-02T08:45:08;7.20;99.90
10433;DHT22;5263;48.680;9.004;2024-03-02T08:47:34;7.10;99.90
10433;DHT22;5263;48.680;9.004;2024-03-02T08:50:00;7.20;99.90
10433;DHT22;5263;48.680;9.004;2024-03-02T08:52:26;7.30;99.90
10433;DHT22;5263;48.680;9.004;2024-03-02T08:54:51;7.50;99.90
10433;DHT22;5263;48.680;9.004;2024-03-02T08:57:17;7.50;99.90
10433;DHT22;5263;48.680;9.004;2024-03-02T08:59:43;7.60;99.90
10433;DHT22;5263;48.680;9.004;2024-03-02T09:02:09;7.90;99.90
10433;DHT22;5263;48.680;9.004;2024-03-02T09:04:35;8.10;99.90
10433;DHT22;5263;48.680;9.004;2024-03-02T09:07:01;8.20;99.90
10433;DHT22;5263;48.680;9.004;2024-03-02T09:09:26;8.30;99.90
10433;DHT22;5263;48.680;9.004;2024-03-02T09:11:52;8.30;99.90
10433;DHT22;5263;48.680;9.004;2024-03-02T09:14:20;8.50;99.90
10433;DHT22;5263;48.680;9.004;2024-03-02T09:16:46;8.60;99.90
10433;DHT22;5263;48.680;9.004;2024-03-02T09:19:11;8.70;99.90
10433;DHT22;5263;48.680;9.004;2024-03-02T09:21:37;8.90;99.90
10433;DHT22;5263;48.680;9.004;2024-03-02T09:24:03;9.00;99.90
10433;DHT22;5263;48.680;9.004;2024-03-02T09:26:29;9.10;99.90
10433;DHT22;5263;48.680;9.004;2024-03-02T09:28:54;9.20;99.90
10433;DHT22;5263;48.680;9.004;2024-03-02T09:31:20;9.30;99.90
10433;DHT22;5263;48.680;9.004;2024-03-02T09:33:46;9.50;99.90
10433;DHT22;5263;48.680;9.004;2024-03-02T09:36:22;9.70;99.90
10433;DHT22;5263;48.680;9.004;2024-03-02T09:38:47;9.90;99.90
10433;DHT22;5263;48.680;9.004;2024-03-02T09:41:14;10.00;99.90
10433;DHT22;5263;48.680;9.004;2024-03-02T09:43:40;10.30;99.90
10433;DHT22;5263;48.680;9.004;2024-03-02T09:46:10;10.50;99.90
10433;DHT22;5263;48.680;9.004;2024-03-02T09:48:36;10.60;99.90
10433;DHT22;5263;48.680;9.004;2024-03-02T09:51:01;10.60;99.90
10433;DHT22;5263;48.680;9.004;2024-03-02T09:53:32;10.70;99.90
10433;DHT22;5263;48.680;9.004;2024-03-02T09:55:59;10.90;99.90
10433;DHT22;5263;48.680;9.004;2024-03-02T09:58:25;11.10;99.90
10433;DHT22;5263;48.680;9.004;2024-03-02T10:00:51;11.30;99.90
10433;DHT22;5263;48.680;9.004;2024-03-02T10:03:18;11.40;99.90
10433;DHT22;5263;48.680;9.004;2024-03-02T10:05:44;11.50;99.90
10433;DHT22;5263;48.680;9.004;2024-03-02T10:08:09;11.70;99.90
10433;DHT22;5263;48.680;9.004;2024-03-02T10:10:36;11.90;99.90
10433;DHT22;5263;48.680;9.004;2024-03-02T10:13:06;12.00;99.90
10433;DHT22;5263;48.680;9.004;2024-03-02T10:15:33;12.10;99.90
10433;DHT22;5263;48.680;9.004;2024-03-02T10:17:58;12.20;99.90
10433;DHT22;5263;48.680;9.004;2024-03-02T10:20:25;12.40;99.90
10433;DHT22;5263;48.680;9.004;2024-03-02T10:22:51;12.70;99.90
10433;DHT22;5263;48.680;9.004;2024-03-02T10:25:33;12.90;99.90
10433;DHT22;5263;48.680;9.004;2024-03-02T10:28:00;13.60;99.90
10433;DHT22;5263;48.680;9.004;2024-03-02T10:30:29;14.70;99.90
10433;DHT22;5263;48.680;9.004;2024-03-02T10:32:55;16.30;99.90
10433;DHT22;5263;48.680;9.004;2024-03-02T10:35:22;17.60;99.90
10433;DHT22;5263;48.680;9.004;2024-03-02T10:38:09;18.90;99.90
10433;DHT22;5263;48.680;9.004;2024-03-02T10:40:34;19.70;96.60
10433;DHT22;5263;48.680;9.004;2024-03-02T10:43:01;21.20;92.60
10433;DHT22;5263;48.680;9.004;2024-03-02T10:45:28;21.30;90.10
10433;DHT22;5263;48.680;9.004;2024-03-02T10:47:55;21.60;88.00
10433;DHT22;5263;48.680;9.004;2024-03-02T10:50:21;22.10;85.60
10433;DHT22;5263;48.680;9.004;2024-03-02T10:52:46;22.70;83.90
10433;DHT22;5263;48.680;9.004;2024-03-02T10:55:12;23.60;83.20
10433;DHT22;5263;48.680;9.004;2024-03-02T10:57:51;23.40;80.00
10433;DHT22;5263;48.680;9.004;2024-03-02T11:00:19;22.70;78.70
10433;DHT22;5263;48.680;9.004;2024-03-02T11:02:56;20.90;79.70
10433;DHT22;5263;48.680;9.004;2024-03-02T11:05:31;19.40;85.10
10433;DHT22;5263;48.680;9.004;2024-03-02T11:08:06;21.20;84.70
10433;DHT22;5263;48.680;9.004;2024-03-02T11:10:35;21.10;81.80
10433;DHT22;5263;48.680;9.004;2024-03-02T11:13:04;21.60;82.20
10433;DHT22;5263;48.680;9.004;2024-03-02T11:15:31;22.70;80.20
10433;DHT22;5263;48.680;9.004;2024-03-02T11:17:59;23.00;77.20
10433;DHT22;5263;48.680;9.004;2024-03-02T11:20:25;23.40;76.80
10433;DHT22;5263;48.680;9.004;2024-03-02T11:22:51;23.40;75.70
10433;DHT22;5263;48.680;9.004;2024-03-02T11:25:27;22.30;75.20
10433;DHT22;5263;48.680;9.004;2024-03-02T11:33:14;21.30;76.40
10433;DHT22;5263;48.680;9.004;2024-03-02T11:35:44;21.30;77.90
10433;DHT22;5263;48.680;9.004;2024-03-02T11:38:13;21.40;76.30
10433;DHT22;5263;48.680;9.004;2024-03-02T11:40:40;20.50;77.10
10433;DHT22;5263;48.680;9.004;2024-03-02T11:43:06;20.50;79.30
10433;DHT22;5263;48.680;9.004;2024-03-02T11:45:33;19.50;83.50
10433;DHT22;5263;48.680;9.004;2024-03-02T11:47:59;19.30;81.30
10433;DHT22;5263;48.680;9.004;2024-03-02T11:50:50;21.40;82.00
10433;DHT22;5263;48.680;9.004;2024-03-02T11:53:17;21.90;75.10
10433;DHT22;5263;48.680;9.004;2024-03-02T11:55:44;22.70;76.90
10433;DHT22;5263;48.680;9.004;2024-03-02T11:58:14;25.00;72.10
10433;DHT22;5263;48.680;9.004;2024-03-02T12:00:39;27.30;65.60
10433;DHT22;5263;48.680;9.004;2024-03-02T12:03:07;27.10;61.70
10433;DHT22;5263;48.680;9.004;2024-03-02T12:05:33;26.50;62.30
10433;DHT22;5263;48.680;9.004;2024-03-02T12:08:06;26.80;61.80
10433;DHT22;5263;48.680;9.004;2024-03-02T12:10:33;26.80;61.00
10433;DHT22;5263;48.680;9.004;2024-03-02T12:13:00;24.80;65.30
10433;DHT22;5263;48.680;9.004;2024-03-02T12:15:34;24.80;65.10
10433;DHT22;5263;48.680;9.004;2024-03-02T12:18:02;26.10;64.60
10433;DHT22;5263;48.680;9.004;2024-03-02T12:20:29;25.20;63.40
10433;DHT22;5263;48.680;9.004;2024-03-02T12:22:57;24.80;65.20
10433;DHT22;5263;48.680;9.004;2024-03-02T12:25:24;28.30;61.40
10433;DHT22;5263;48.680;9.004;2024-03-02T12:27:51;29.20;58.70
10433;DHT22;5263;48.680;9.004;2024-03-02T12:30:18;30.50;55.40
10433;DHT22;5263;48.680;9.004;2024-03-02T12:32:44;28.90;57.70
10433;DHT22;5263;48.680;9.004;2024-03-02T12:35:11;29.30;55.90
10433;DHT22;5263;48.680;9.004;2024-03-02T12:37:44;29.90;52.40
10433;DHT22;5263;48.680;9.004;2024-03-02T12:40:11;30.50;51.00
10433;DHT22;5263;48.680;9.004;2024-03-02T12:42:38;29.80;49.90
10433;DHT22;5263;48.680;9.004;2024-03-02T12:45:04;26.60;54.10
10433;DHT22;5263;48.680;9.004;2024-03-02T12:47:30;26.50;54.50
10433;DHT22;5263;48.680;9.004;2024-03-02T12:49:55;24.80;57.90
10433;DHT22;5263;48.680;9.004;2024-03-02T12:52:22;25.20;57.70
10433;DHT22;5263;48.680;9.004;2024-03-02T12:54:47;25.20;58.60
10433;DHT22;5263;48.680;9.004;2024-03-02T12:57:19;27.60;55.20
10433;DHT22;5263;48.680;9.004;2024-03-02T12:59:48;28.80;53.00
10433;DHT22;5263;48.680;9.004;2024-03-02T13:02:20;28.10;52.30
10433;DHT22;5263;48.680;9.004;2024-03-02T13:04:53;28.50;52.20
10433;DHT22;5263;48.680;9.004;2024-03-02T13:07:23;26.60;53.60
10433;DHT22;5263;48.680;9.004;2024-03-02T13:09:49;27.10;53.40
10433;DHT22;5263;48.680;9.004;2024-03-02T13:12:16;27.10;53.10
10433;DHT22;5263;48.680;9.004;2024-03-02T13:14:42;28.70;49.30
10433;DHT22;5263;48.680;9.004;2024-03-02T13:17:10;29.20;47.30
10433;DHT22;5263;48.680;9.004;2024-03-02T13:19:50;30.20;47.10
10433;DHT22;5263;48.680;9.004;2024-03-02T13:22:16;29.90;45.50
10433;DHT22;5263;48.680;9.004;2024-03-02T13:24:41;29.30;46.40
10433;DHT22;5263;48.680;9.004;2024-03-02T13:27:08;27.80;46.50
10433;DHT22;5263;48.680;9.004;2024-03-02T13:29:33;25.80;49.90
10433;DHT22;5263;48.680;9.004;2024-03-02T13:31:59;24.10;50.60
10433;DHT22;5263;48.680;9.004;2024-03-02T13:34:25;23.40;54.80
10433;DHT22;5263;48.680;9.004;2024-03-02T13:36:50;24.80;53.00
10433;DHT22;5263;48.680;9.004;2024-03-02T13:39:16;22.60;55.00
10433;DHT22;5263;48.680;9.004;2024-03-02T13:41:41;21.70;55.80
10433;DHT22;5263;48.680;9.004;2024-03-02T13:44:07;21.40;57.90
10433;DHT22;5263;48.680;9.004;2024-03-02T13:46:32;21.80;56.60
10433;DHT22;5263;48.680;9.004;2024-03-02T13:48:58;21.50;56.70
10433;DHT22;5263;48.680;9.004;2024-03-02T13:51:24;19.20;59.60
10433;DHT22;5263;48.680;9.004;2024-03-02T13:53:50;18.10;63.70
10433;DHT22;5263;48.680;9.004;2024-03-02T13:56:16;18.00;65.40
10433;DHT22;5263;48.680;9.004;2024-03-02T13:58:42;18.50;66.00
10433;DHT22;5263;48.680;9.004;2024-03-02T14:01:09;17.70;66.00
10433;DHT22;5263;48.680;9.004;2024-03-02T14:03:34;18.40;67.00
10433;DHT22;5263;48.680;9.004;2024-03-02T14:06:00;18.90;65.50
10433;DHT22;5263;48.680;9.004;2024-03-02T14:08:26;19.30;65.80
10433;DHT22;5263;48.680;9.004;2024-03-02T14:10:52;19.50;65.70
10433;DHT22;5263;48.680;9.004;2024-03-02T14:13:17;19.50;65.50
10433;DHT22;5263;48.680;9.004;2024-03-02T14:15:43;19.70;65.90
10433;DHT22;5263;48.680;9.004;2024-03-02T14:18:08;20.20;65.60
10433;DHT22;5263;48.680;9.004;2024-03-02T14:20:37;19.90;65.70
10433;DHT22;5263;48.680;9.004;2024-03-02T14:23:03;20.50;64.30
10433;DHT22;5263;48.680;9.004;2024-03-02T14:25:29;22.10;61.90
10433;DHT22;5263;48.680;9.004;2024-03-02T14:27:58;22.50;60.00
10433;DHT22;5263;48.680;9.004;2024-03-02T14:30:24;21.60;61.40
10433;DHT22;5263;48.680;9.004;2024-03-02T14:32:50;21.10;61.50
10433;DHT22;5263;48.680;9.004;2024-03-02T14:35:16;20.00;63.60
10433;DHT22;5263;48.680;9.004;2024-03-02T14:37:42;20.40;64.50
10433;DHT22;5263;48.680;9.004;2024-03-02T14:40:08;20.30;63.80
10433;DHT22;5263;48.680;9.004;2024-03-02T14:42:35;19.60;62.90
10433;DHT22;5263;48.680;9.004;2024-03-02T14:45:01;18.80;65.80
10433;DHT22;5263;48.680;9.004;2024-03-02T14:47:29;18.70;68.80
10433;DHT22;5263;48.680;9.004;2024-03-02T14:49:55;19.70;68.10
10433;DHT22;5263;48.680;9.004;2024-03-02T14:52:20;20.00;67.80
10433;DHT22;5263;48.680;9.004;2024-03-02T14:54:46;20.00;66.00
10433;DHT22;5263;48.680;9.004;2024-03-02T14:57:12;19.80;66.90
10433;DHT22;5263;48.680;9.004;2024-03-02T14:59:37;19.40;66.60
10433;DHT22;5263;48.680;9.004;2024-03-02T15:02:03;20.60;67.70
10433;DHT22;5263;48.680;9.004;2024-03-02T15:04:29;21.00;65.80
10433;DHT22;5263;48.680;9.004;2024-03-02T15:06:54;20.60;66.00
10433;DHT22;5263;48.680;9.004;2024-03-02T15:09:20;19.60;66.00
10433;DHT22;5263;48.680;9.004;2024-03-02T15:11:46;18.90;67.70
10433;DHT22;5263;48.680;9.004;2024-03-02T15:14:11;18.30;69.40
10433;DHT22;5263;48.680;9.004;2024-03-02T15:16:37;18.90;69.50
10433;DHT22;5263;48.680;9.004;2024-03-02T15:19:03;18.60;70.40
10433;DHT22;5263;48.680;9.004;2024-03-02T15:21:28;18.20;69.50
10433;DHT22;5263;48.680;9.004;2024-03-02T15:23:54;18.20;69.70
10433;DHT22;5263;48.680;9.004;2024-03-02T15:26:19;17.70;70.20
10433;DHT22;5263;48.680;9.004;2024-03-02T15:28:45;17.80;71.50
10433;DHT22;5263;48.680;9.004;2024-03-02T15:31:10;17.80;71.70
10433;DHT22;5263;48.680;9.004;2024-03-02T15:33:36;17.40;73.80
10433;DHT22;5263;48.680;9.004;2024-03-02T15:36:02;17.00;73.60
10433;DHT22;5263;48.680;9.004;2024-03-02T15:38:28;16.60;73.50
10433;DHT22;5263;48.680;9.004;2024-03-02T15:40:53;16.40;74.60
10433;DHT22;5263;48.680;9.004;2024-03-02T15:43:19;16.50;74.80
10433;DHT22;5263;48.680;9.004;2024-03-02T15:45:44;16.00;75.20
10433;DHT22;5263;48.680;9.004;2024-03-02T15:48:10;15.90;76.80
10433;DHT22;5263;48.680;9.004;2024-03-02T15:50:36;15.70;76.50
10433;DHT22;5263;48.680;9.004;2024-03-02T15:53:03;15.60;77.50
10433;DHT22;5263;48.680;9.004;2024-03-02T15:55:32;15.40;76.10
10433;DHT22;5263;48.680;9.004;2024-03-02T15:57:58;15.00;77.90
10433;DHT22;5263;48.680;9.004;2024-03-02T16:00:24;15.00;77.40